This is the latest recevied weather packets stored in our database for station/object F4AMY-13. If no packets are shown the sender has not sent any weather packets the latest 10 day(s).
| Time | Temp. | Humidity | Pressure | Rain* | Wind** | Luminosity | Snow |
|---|---|---|---|---|---|---|---|
| 1777617136 | 16.11° C | 63% | 1021.6 hPa | 0 mm | 13.41 m/s, ° | 30 W/m² | - |
| 1777616836 | 16.11° C | 63% | 1021.6 hPa | 0 mm | 12.96 m/s, ° | 29 W/m² | - |
| 1777616536 | 15.56° C | 65% | 1021.3 hPa | 0 mm | 12.96 m/s, ° | 29 W/m² | - |
| 1777616236 | 15.56° C | 66% | 1021.1 hPa | 0 mm | 12.96 m/s, ° | 29 W/m² | - |
| 1777615936 | 15° C | 63% | 1021.1 hPa | 0 mm | 13.41 m/s, ° | 30 W/m² | - |
| 1777615636 | 15° C | 67% | 1021.4 hPa | 0 mm | 11.62 m/s, ° | 26 W/m² | - |
| 1777615336 | 15° C | 69% | 1021.1 hPa | 0 mm | 9.83 m/s, ° | 22 W/m² | - |
| 1777615036 | 14.44° C | 68% | 1021.2 hPa | 0 mm | 9.39 m/s, ° | 21 W/m² | - |
| 1777614736 | 14.44° C | 67% | 1021.1 hPa | 0 mm | 8.49 m/s, ° | 19 W/m² | - |
| 1777614436 | 14.44° C | 69% | 1021.1 hPa | 0 mm | 7.6 m/s, ° | 17 W/m² | - |
| 1777614136 | 14.44° C | 68% | 1021 hPa | 0 mm | 2.24 m/s, ° | 5 W/m² | - |
| 1777613836 | 13.89° C | 70% | 1021.1 hPa | 0 mm | 0.89 m/s, ° | 2 W/m² | - |
| 1777613535 | 13.89° C | 71% | 1021.1 hPa | 0 mm | 0 m/s | 0 W/m² | - |
| 1777613235 | 13.89° C | 71% | 1021.1 hPa | 0 mm | 0 m/s | 0 W/m² | - |
| 1777612935 | 13.89° C | 71% | 1021 hPa | 0 mm | 0 m/s | 0 W/m² | - |
| 1777612635 | 13.89° C | 71% | 1020.9 hPa | 0 mm | 0 m/s | 0 W/m² | - |
| 1777612335 | 13.89° C | 71% | 1020.9 hPa | 0 mm | 0 m/s | 0 W/m² | - |
| 1777612035 | 13.89° C | 71% | 1020.9 hPa | 0 mm | 0 m/s | 0 W/m² | - |
| 1777611735 | 13.33° C | 72% | 1020.8 hPa | 0 mm | 0 m/s | 0 W/m² | - |
| 1777611435 | 13.33° C | 72% | 1020.8 hPa | 0 mm | 0 m/s | 0 W/m² | - |
| 1777611135 | 13.33° C | 71% | 1020.7 hPa | 0 mm | 0 m/s | 0 W/m² | - |
| 1777610835 | 13.33° C | 71% | 1020.7 hPa | 0 mm | 0 m/s | 0 W/m² | - |
| 1777610535 | 13.33° C | 74% | 1020.7 hPa | 0 mm | 0 m/s | 0 W/m² | - |
| 1777610235 | 13.33° C | 76% | 1020.7 hPa | 0 mm | 0 m/s | 0 W/m² | - |
| 1777609935 | 13.33° C | 76% | 1020.4 hPa | 0 mm | 0 m/s | 0 W/m² | - |
* Rain latest hour (hover to see other rain measurements)
** Current wind speed in m/s (hover to see current wind gust speed)